Terminal Aerodrome Forecast
Issued by NWS

Home | Current Version | Previous Version | Text Only | Print | Product List | Glossary On
Versions: 1 2 3 4 5 6 7 8 9 10 11 12 13 14 15 16
167
FTUS43 KBIS 180301 AAA
TAFMOT
TAF AMD
KMOT 180301Z 1803/1824 28002KT P6SM SCT100
     FM180500 03005KT P6SM OVC070
     FM180900 06010KT 1SM -SN OVC030
     FM181100 03012KT 1/2SM SN OVC015
     FM181800 36012KT P6SM BKN035=

USA.gov is the U.S. government's official web portal to all federal, state and local government web resources and services.